sensor_id;sensor_type;location;lat;lon;timestamp;pressure;altitude;pressure_sealevel;temperature;humidity
38716;BME280;24833;49.324;8.694;2024-03-08T00:00:14;99755.97;;;4.70;77.63
38716;BME280;24833;49.324;8.694;2024-03-08T00:02:46;99755.44;;;4.67;77.60
38716;BME280;24833;49.324;8.694;2024-03-08T00:05:15;99747.84;;;4.63;77.61
38716;BME280;24833;49.324;8.694;2024-03-08T00:07:42;99747.31;;;4.60;77.56
38716;BME280;24833;49.324;8.694;2024-03-08T00:10:12;99745.97;;;4.56;77.67
38716;BME280;24833;49.324;8.694;2024-03-08T00:12:43;99745.44;;;4.52;77.50
38716;BME280;24833;49.324;8.694;2024-03-08T00:15:16;99745.78;;;4.49;77.65
38716;BME280;24833;49.324;8.694;2024-03-08T00:17:46;99742.78;;;4.44;77.53
38716;BME280;24833;49.324;8.694;2024-03-08T00:20:16;99744.75;;;4.42;77.86
38716;BME280;24833;49.324;8.694;2024-03-08T00:22:44;99736.47;;;4.37;77.55
38716;BME280;24833;49.324;8.694;2024-03-08T00:25:12;99737.56;;;4.34;77.70
38716;BME280;24833;49.324;8.694;2024-03-08T00:27:39;99739.72;;;4.31;77.65
38716;BME280;24833;49.324;8.694;2024-03-08T00:30:08;99732.94;;;4.28;77.67
38716;BME280;24833;49.324;8.694;2024-03-08T00:32:35;99736.03;;;4.24;77.83
38716;BME280;24833;49.324;8.694;2024-03-08T00:35:04;99733.69;;;4.21;77.93
38716;BME280;24833;49.324;8.694;2024-03-08T00:37:34;99723.44;;;4.18;77.90
38716;BME280;24833;49.324;8.694;2024-03-08T00:40:01;99735.19;;;4.15;77.73
38716;BME280;24833;49.324;8.694;2024-03-08T00:42:28;99724.91;;;4.12;77.86
38716;BME280;24833;49.324;8.694;2024-03-08T00:44:55;99731.50;;;4.08;77.88
38716;BME280;24833;49.324;8.694;2024-03-08T00:47:24;99724.69;;;4.05;77.86
38716;BME280;24833;49.324;8.694;2024-03-08T00:49:51;99721.53;;;4.02;77.91
38716;BME280;24833;49.324;8.694;2024-03-08T00:52:19;99715.72;;;3.98;77.75
38716;BME280;24833;49.324;8.694;2024-03-08T00:54:47;99720.34;;;3.96;77.79
38716;BME280;24833;49.324;8.694;2024-03-08T00:57:14;99711.88;;;3.93;77.97
38716;BME280;24833;49.324;8.694;2024-03-08T00:59:41;99706.94;;;3.90;77.70
38716;BME280;24833;49.324;8.694;2024-03-08T01:02:08;99716.97;;;3.86;77.66
38716;BME280;24833;49.324;8.694;2024-03-08T01:04:36;99705.72;;;3.84;77.99
38716;BME280;24833;49.324;8.694;2024-03-08T01:07:03;99701.72;;;3.80;77.85
38716;BME280;24833;49.324;8.694;2024-03-08T01:09:30;99698.41;;;3.78;77.70
38716;BME280;24833;49.324;8.694;2024-03-08T01:11:57;99693.59;;;3.73;77.70
38716;BME280;24833;49.324;8.694;2024-03-08T01:14:24;99694.72;;;3.71;78.03
38716;BME280;24833;49.324;8.694;2024-03-08T01:16:56;99694.34;;;3.66;77.96
38716;BME280;24833;49.324;8.694;2024-03-08T01:19:23;99692.69;;;3.65;78.06
38716;BME280;24833;49.324;8.694;2024-03-08T01:21:51;99691.34;;;3.61;77.89
38716;BME280;24833;49.324;8.694;2024-03-08T01:24:18;99686.38;;;3.58;78.11
38716;BME280;24833;49.324;8.694;2024-03-08T01:26:45;99674.47;;;3.53;78.23
38716;BME280;24833;49.324;8.694;2024-03-08T01:29:14;99676.44;;;3.51;77.83
38716;BME280;24833;49.324;8.694;2024-03-08T01:31:41;99670.66;;;3.48;78.33
38716;BME280;24833;49.324;8.694;2024-03-08T01:34:10;99671.75;;;3.45;78.16
38716;BME280;24833;49.324;8.694;2024-03-08T01:36:37;99662.34;;;3.43;78.18
38716;BME280;24833;49.324;8.694;2024-03-08T01:39:04;99669.56;;;3.41;78.04
38716;BME280;24833;49.324;8.694;2024-03-08T01:41:35;99652.25;;;3.38;78.22
38716;BME280;24833;49.324;8.694;2024-03-08T01:44:03;99652.56;;;3.35;78.23
38716;BME280;24833;49.324;8.694;2024-03-08T01:46:30;99645.09;;;3.31;78.16
38716;BME280;24833;49.324;8.694;2024-03-08T01:48:59;99650.53;;;3.29;78.20
38716;BME280;24833;49.324;8.694;2024-03-08T01:51:28;99648.16;;;3.26;78.27
38716;BME280;24833;49.324;8.694;2024-03-08T01:53:58;99647.50;;;3.24;78.21
38716;BME280;24833;49.324;8.694;2024-03-08T01:56:28;99637.22;;;3.21;78.07
38716;BME280;24833;49.324;8.694;2024-03-08T01:58:56;99642.00;;;3.17;78.18
38716;BME280;24833;49.324;8.694;2024-03-08T02:01:23;99643.00;;;3.16;78.25
38716;BME280;24833;49.324;8.694;2024-03-08T02:03:50;99638.00;;;3.13;78.30
38716;BME280;24833;49.324;8.694;2024-03-08T02:06:17;99631.22;;;3.11;78.12
38716;BME280;24833;49.324;8.694;2024-03-08T02:08:46;99628.75;;;3.09;78.28
38716;BME280;24833;49.324;8.694;2024-03-08T02:11:14;99621.13;;;3.06;78.50
38716;BME280;24833;49.324;8.694;2024-03-08T02:13:42;99623.91;;;3.05;78.25
38716;BME280;24833;49.324;8.694;2024-03-08T02:16:10;99627.69;;;3.02;78.30
38716;BME280;24833;49.324;8.694;2024-03-08T02:18:37;99620.06;;;2.99;78.48
38716;BME280;24833;49.324;8.694;2024-03-08T02:21:07;99625.34;;;2.99;78.33
38716;BME280;24833;49.324;8.694;2024-03-08T02:23:35;99621.22;;;2.96;78.39
38716;BME280;24833;49.324;8.694;2024-03-08T02:26:04;99620.53;;;2.94;78.27
38716;BME280;24833;49.324;8.694;2024-03-08T02:28:31;99617.22;;;2.92;78.37
38716;BME280;24833;49.324;8.694;2024-03-08T02:30:59;99616.53;;;2.90;78.58
38716;BME280;24833;49.324;8.694;2024-03-08T02:33:28;99614.06;;;2.89;78.28
38716;BME280;24833;49.324;8.694;2024-03-08T02:35:56;99607.25;;;2.86;78.59
38716;BME280;24833;49.324;8.694;2024-03-08T02:38:23;99610.88;;;2.85;78.69
38716;BME280;24833;49.324;8.694;2024-03-08T02:40:53;99599.81;;;2.82;78.29
38716;BME280;24833;49.324;8.694;2024-03-08T02:43:21;99599.00;;;2.81;78.47
38716;BME280;24833;49.324;8.694;2024-03-08T02:45:49;99596.63;;;2.78;78.39
38716;BME280;24833;49.324;8.694;2024-03-08T02:48:16;99597.63;;;2.77;78.57
38716;BME280;24833;49.324;8.694;2024-03-08T02:50:44;99597.78;;;2.76;78.48
38716;BME280;24833;49.324;8.694;2024-03-08T02:53:13;99596.25;;;2.73;78.82
38716;BME280;24833;49.324;8.694;2024-03-08T02:55:41;99595.59;;;2.71;78.72
38716;BME280;24833;49.324;8.694;2024-03-08T02:58:09;99589.66;;;2.69;78.82
38716;BME280;24833;49.324;8.694;2024-03-08T03:00:41;99587.28;;;2.66;78.72
38716;BME280;24833;49.324;8.694;2024-03-08T03:03:11;99583.81;;;2.65;78.65
38716;BME280;24833;49.324;8.694;2024-03-08T03:05:38;99579.69;;;2.63;78.80
38716;BME280;24833;49.324;8.694;2024-03-08T03:08:12;99579.84;;;2.61;79.05
38716;BME280;24833;49.324;8.694;2024-03-08T03:10:40;99580.97;;;2.59;78.71
38716;BME280;24833;49.324;8.694;2024-03-08T03:13:07;99576.66;;;2.58;79.01
38716;BME280;24833;49.324;8.694;2024-03-08T03:15:35;99570.72;;;2.56;78.90
38716;BME280;24833;49.324;8.694;2024-03-08T03:18:04;99572.66;;;2.54;78.99
38716;BME280;24833;49.324;8.694;2024-03-08T03:20:35;99566.72;;;2.52;79.25
38716;BME280;24833;49.324;8.694;2024-03-08T03:23:08;99568.69;;;2.50;78.90
38716;BME280;24833;49.324;8.694;2024-03-08T03:25:37;99560.13;;;2.48;79.20
38716;BME280;24833;49.324;8.694;2024-03-08T03:28:05;99564.69;;;2.45;79.16
38716;BME280;24833;49.324;8.694;2024-03-08T03:30:34;99563.19;;;2.43;79.00
38716;BME280;24833;49.324;8.694;2024-03-08T03:33:02;99564.16;;;2.42;79.17
38716;BME280;24833;49.324;8.694;2024-03-08T03:35:34;99563.47;;;2.40;79.19
38716;BME280;24833;49.324;8.694;2024-03-08T03:38:04;99556.69;;;2.37;79.11
38716;BME280;24833;49.324;8.694;2024-03-08T03:40:37;99555.19;;;2.35;79.27
38716;BME280;24833;49.324;8.694;2024-03-08T03:43:04;99552.69;;;2.33;79.15
38716;BME280;24833;49.324;8.694;2024-03-08T03:45:32;99555.47;;;2.32;79.25
38716;BME280;24833;49.324;8.694;2024-03-08T03:48:05;99551.34;;;2.29;79.09
38716;BME280;24833;49.324;8.694;2024-03-08T03:50:35;99560.34;;;2.27;79.32
38716;BME280;24833;49.324;8.694;2024-03-08T03:53:04;99549.97;;;2.25;79.44
38716;BME280;24833;49.324;8.694;2024-03-08T03:55:31;99543.06;;;2.24;79.45
38716;BME280;24833;49.324;8.694;2024-03-08T03:57:59;99548.63;;;2.21;79.40
38716;BME280;24833;49.324;8.694;2024-03-08T04:00:28;99533.78;;;2.20;79.54
38716;BME280;24833;49.324;8.694;2024-03-08T04:02:55;99545.28;;;2.19;79.46
38716;BME280;24833;49.324;8.694;2024-03-08T04:05:26;99540.34;;;2.16;79.58
38716;BME280;24833;49.324;8.694;2024-03-08T04:07:53;99537.84;;;2.14;79.51
38716;BME280;24833;49.324;8.694;2024-03-08T04:10:20;99534.38;;;2.14;79.49
38716;BME280;24833;49.324;8.694;2024-03-08T04:12:47;99528.44;;;2.12;79.74
38716;BME280;24833;49.324;8.694;2024-03-08T04:15:14;99525.13;;;2.10;79.79
38716;BME280;24833;49.324;8.694;2024-03-08T04:17:42;99527.09;;;2.08;79.60
38716;BME280;24833;49.324;8.694;2024-03-08T04:20:10;99527.09;;;2.08;79.63
38716;BME280;24833;49.324;8.694;2024-03-08T04:22:38;99515.84;;;2.06;79.64
38716;BME280;24833;49.324;8.694;2024-03-08T04:25:07;99523.06;;;2.04;79.76
38716;BME280;24833;49.324;8.694;2024-03-08T04:27:35;99511.88;;;2.02;79.67
38716;BME280;24833;49.324;8.694;2024-03-08T04:30:06;99512.00;;;2.00;80.04
38716;BME280;24833;49.324;8.694;2024-03-08T04:32:36;99520.06;;;1.99;79.85
38716;BME280;24833;49.324;8.694;2024-03-08T04:35:05;99514.13;;;1.97;79.99
38716;BME280;24833;49.324;8.694;2024-03-08T04:37:32;99509.13;;;1.94;79.96
38716;BME280;24833;49.324;8.694;2024-03-08T04:39:59;99509.13;;;1.94;80.19
38716;BME280;24833;49.324;8.694;2024-03-08T04:42:28;99495.28;;;1.91;79.92
38716;BME280;24833;49.324;8.694;2024-03-08T04:44:56;99508.59;;;1.90;80.14
38716;BME280;24833;49.324;8.694;2024-03-08T04:47:24;99500.03;;;1.88;80.13
38716;BME280;24833;49.324;8.694;2024-03-08T04:49:52;99495.88;;;1.85;80.32
38716;BME280;24833;49.324;8.694;2024-03-08T04:52:19;99499.47;;;1.84;80.10
38716;BME280;24833;49.324;8.694;2024-03-08T04:54:46;99506.72;;;1.82;80.42
38716;BME280;24833;49.324;8.694;2024-03-08T04:57:13;99504.22;;;1.81;80.30
38716;BME280;24833;49.324;8.694;2024-03-08T04:59:40;99500.75;;;1.80;80.50
38716;BME280;24833;49.324;8.694;2024-03-08T05:02:07;99509.78;;;1.78;80.60
38716;BME280;24833;49.324;8.694;2024-03-08T05:04:35;99499.38;;;1.76;80.58
38716;BME280;24833;49.324;8.694;2024-03-08T05:07:02;99493.47;;;1.74;80.41
38716;BME280;24833;49.324;8.694;2024-03-08T05:09:29;99487.50;;;1.72;80.57
38716;BME280;24833;49.324;8.694;2024-03-08T05:11:59;99488.47;;;1.71;80.65
38716;BME280;24833;49.324;8.694;2024-03-08T05:14:26;99490.44;;;1.69;80.71
38716;BME280;24833;49.324;8.694;2024-03-08T05:16:53;99488.78;;;1.68;80.56
38716;BME280;24833;49.324;8.694;2024-03-08T05:19:23;99491.53;;;1.67;80.67
38716;BME280;24833;49.324;8.694;2024-03-08T05:21:51;99491.69;;;1.65;80.79
38716;BME280;24833;49.324;8.694;2024-03-08T05:24:19;99484.75;;;1.64;80.57
38716;BME280;24833;49.324;8.694;2024-03-08T05:26:46;99484.91;;;1.62;80.89
38716;BME280;24833;49.324;8.694;2024-03-08T05:29:17;99486.84;;;1.60;80.97
38716;BME280;24833;49.324;8.694;2024-03-08T05:31:50;99484.38;;;1.59;80.96
38716;BME280;24833;49.324;8.694;2024-03-08T05:34:19;99474.81;;;1.58;81.16
38716;BME280;24833;49.324;8.694;2024-03-08T05:36:47;99481.06;;;1.57;81.06
38716;BME280;24833;49.324;8.694;2024-03-08T05:39:17;99476.78;;;1.56;81.26
38716;BME280;24833;49.324;8.694;2024-03-08T05:41:44;99483.00;;;1.55;81.34
38716;BME280;24833;49.324;8.694;2024-03-08T05:44:13;99481.38;;;1.54;81.35
38716;BME280;24833;49.324;8.694;2024-03-08T05:46:40;99481.47;;;1.52;81.25
38716;BME280;24833;49.324;8.694;2024-03-08T05:49:07;99471.94;;;1.51;81.36
38716;BME280;24833;49.324;8.694;2024-03-08T05:51:38;99476.38;;;1.51;81.53
38716;BME280;24833;49.324;8.694;2024-03-08T05:54:11;99470.28;;;1.50;81.24
38716;BME280;24833;49.324;8.694;2024-03-08T05:56:43;99478.34;;;1.49;81.63
38716;BME280;24833;49.324;8.694;2024-03-08T05:59:12;99468.78;;;1.48;81.58
38716;BME280;24833;49.324;8.694;2024-03-08T06:01:40;99467.09;;;1.47;81.67
38716;BME280;24833;49.324;8.694;2024-03-08T06:04:09;99469.72;;;1.47;81.59
38716;BME280;24833;49.324;8.694;2024-03-08T06:06:38;99462.81;;;1.46;81.87
38716;BME280;24833;49.324;8.694;2024-03-08T06:09:06;99468.09;;;1.46;81.93
38716;BME280;24833;49.324;8.694;2024-03-08T06:11:40;99461.16;;;1.45;82.16
38716;BME280;24833;49.324;8.694;2024-03-08T06:14:09;99445.38;;;1.45;82.01
38716;BME280;24833;49.324;8.694;2024-03-08T06:16:36;99455.91;;;1.45;82.34
38716;BME280;24833;49.324;8.694;2024-03-08T06:19:04;99461.16;;;1.45;82.43
38716;BME280;24833;49.324;8.694;2024-03-08T06:21:32;99449.81;;;1.44;82.36
38716;BME280;24833;49.324;8.694;2024-03-08T06:23:59;99454.09;;;1.45;82.78
38716;BME280;24833;49.324;8.694;2024-03-08T06:26:27;99458.53;;;1.45;82.53
38716;BME280;24833;49.324;8.694;2024-03-08T06:28:58;99444.41;;;1.46;82.69
38716;BME280;24833;49.324;8.694;2024-03-08T06:31:25;99443.59;;;1.45;82.95
38716;BME280;24833;49.324;8.694;2024-03-08T06:33:53;99457.56;;;1.46;82.99
38716;BME280;24833;49.324;8.694;2024-03-08T06:36:22;99447.03;;;1.46;82.99
38716;BME280;24833;49.324;8.694;2024-03-08T06:38:50;99465.34;;;1.47;83.00
38716;BME280;24833;49.324;8.694;2024-03-08T06:41:17;99457.28;;;1.49;83.26
38716;BME280;24833;49.324;8.694;2024-03-08T06:43:46;99463.38;;;1.49;83.09
38716;BME280;24833;49.324;8.694;2024-03-08T06:46:15;99470.28;;;1.50;83.38
38716;BME280;24833;49.324;8.694;2024-03-08T06:48:43;99456.16;;;1.51;83.38
38716;BME280;24833;49.324;8.694;2024-03-08T06:51:10;99460.44;;;1.52;83.47
38716;BME280;24833;49.324;8.694;2024-03-08T06:53:38;99460.31;;;1.54;83.48
38716;BME280;24833;49.324;8.694;2024-03-08T06:56:06;99465.28;;;1.57;83.66
38716;BME280;24833;49.324;8.694;2024-03-08T06:58:34;99465.28;;;1.57;83.87
38716;BME280;24833;49.324;8.694;2024-03-08T07:01:01;99465.78;;;1.60;84.03
38716;BME280;24833;49.324;8.694;2024-03-08T07:03:31;99469.97;;;1.63;84.06
38716;BME280;24833;49.324;8.694;2024-03-08T07:05:59;99469.66;;;1.66;84.06
38716;BME280;24833;49.324;8.694;2024-03-08T07:08:28;99472.84;;;1.70;84.30
38716;BME280;24833;49.324;8.694;2024-03-08T07:10:55;99480.97;;;1.76;84.41
38716;BME280;24833;49.324;8.694;2024-03-08T07:13:25;99473.47;;;1.81;84.54
38716;BME280;24833;49.324;8.694;2024-03-08T07:15:52;99465.00;;;1.87;84.66
38716;BME280;24833;49.324;8.694;2024-03-08T07:18:19;99459.81;;;1.96;84.76
38716;BME280;24833;49.324;8.694;2024-03-08T07:20:46;99458.91;;;2.05;84.90
38716;BME280;24833;49.324;8.694;2024-03-08T07:23:13;99456.22;;;2.14;84.88
38716;BME280;24833;49.324;8.694;2024-03-08T07:26:01;99454.03;;;2.28;85.20
38716;BME280;24833;49.324;8.694;2024-03-08T07:28:28;99449.50;;;2.38;85.00
38716;BME280;24833;49.324;8.694;2024-03-08T07:30:58;99445.84;;;2.49;85.58
38716;BME280;24833;49.324;8.694;2024-03-08T07:33:44;99435.72;;;2.62;85.28
38716;BME280;24833;49.324;8.694;2024-03-08T07:36:11;99438.09;;;2.73;85.44
38716;BME280;24833;49.324;8.694;2024-03-08T07:38:39;99435.22;;;2.84;85.71
38716;BME280;24833;49.324;8.694;2024-03-08T07:41:06;99435.97;;;2.94;85.58
38716;BME280;24833;49.324;8.694;2024-03-08T07:43:33;99436.50;;;3.06;85.81
38716;BME280;24833;49.324;8.694;2024-03-08T07:46:00;99432.78;;;3.17;85.92
38716;BME280;24833;49.324;8.694;2024-03-08T07:48:27;99437.13;;;3.26;85.75
38716;BME280;24833;49.324;8.694;2024-03-08T07:50:55;99433.22;;;3.38;85.95
38716;BME280;24833;49.324;8.694;2024-03-08T07:53:22;99432.25;;;3.47;85.70
38716;BME280;24833;49.324;8.694;2024-03-08T07:55:52;99427.69;;;3.58;85.59
38716;BME280;24833;49.324;8.694;2024-03-08T07:58:19;99437.00;;;3.70;86.17
38716;BME280;24833;49.324;8.694;2024-03-08T08:00:47;99437.66;;;3.80;85.79
38716;BME280;24833;49.324;8.694;2024-03-08T08:03:14;99434.22;;;3.88;85.73
38716;BME280;24833;49.324;8.694;2024-03-08T08:05:41;99423.53;;;3.97;85.63
38716;BME280;24833;49.324;8.694;2024-03-08T08:08:08;99432.97;;;4.08;85.94
38716;BME280;24833;49.324;8.694;2024-03-08T08:10:37;99428.19;;;4.20;85.65
38716;BME280;24833;49.324;8.694;2024-03-08T08:13:05;99425.22;;;4.31;85.88
38716;BME280;24833;49.324;8.694;2024-03-08T08:15:32;99417.00;;;4.42;85.50
38716;BME280;24833;49.324;8.694;2024-03-08T08:18:02;99428.84;;;4.54;85.68
38716;BME280;24833;49.324;8.694;2024-03-08T08:20:32;99418.94;;;4.64;85.77
38716;BME280;24833;49.324;8.694;2024-03-08T08:22:59;99430.34;;;4.73;85.81
38716;BME280;24833;49.324;8.694;2024-03-08T08:25:26;99421.25;;;4.84;85.73
38716;BME280;24833;49.324;8.694;2024-03-08T08:27:53;99423.38;;;4.97;85.83
38716;BME280;24833;49.324;8.694;2024-03-08T08:30:25;99419.41;;;5.09;85.52
38716;BME280;24833;49.324;8.694;2024-03-08T08:32:52;99421.00;;;5.18;85.39
38716;BME280;24833;49.324;8.694;2024-03-08T08:35:19;99412.22;;;5.26;84.98
38716;BME280;24833;49.324;8.694;2024-03-08T08:37:46;99420.47;;;5.31;84.99
38716;BME280;24833;49.324;8.694;2024-03-08T08:40:14;99412.19;;;5.34;84.61
38716;BME280;24833;49.324;8.694;2024-03-08T08:42:42;99423.44;;;5.36;84.44
38716;BME280;24833;49.324;8.694;2024-03-08T08:45:10;99412.50;;;5.39;84.50
38716;BME280;24833;49.324;8.694;2024-03-08T08:47:46;99410.34;;;5.42;83.94
38716;BME280;24833;49.324;8.694;2024-03-08T08:50:14;99414.47;;;5.45;83.73
38716;BME280;24833;49.324;8.694;2024-03-08T08:52:41;99414.97;;;5.49;83.82
38716;BME280;24833;49.324;8.694;2024-03-08T08:55:11;99414.44;;;5.53;83.43
38716;BME280;24833;49.324;8.694;2024-03-08T08:57:41;99418.56;;;5.56;83.52
38716;BME280;24833;49.324;8.694;2024-03-08T09:00:09;99408.63;;;5.58;83.14
38716;BME280;24833;49.324;8.694;2024-03-08T09:02:42;99405.16;;;5.57;83.04
38716;BME280;24833;49.324;8.694;2024-03-08T09:05:09;99399.88;;;5.57;82.96
38716;BME280;24833;49.324;8.694;2024-03-08T09:07:37;99400.19;;;5.54;82.73
38716;BME280;24833;49.324;8.694;2024-03-08T09:10:05;99390.78;;;5.52;82.22
38716;BME280;24833;49.324;8.694;2024-03-08T09:12:35;99382.53;;;5.46;82.11
38716;BME280;24833;49.324;8.694;2024-03-08T09:15:02;99385.53;;;5.43;81.48
38716;BME280;24833;49.324;8.694;2024-03-08T09:17:29;99392.97;;;5.40;81.35
38716;BME280;24833;49.324;8.694;2024-03-08T09:19:57;99386.22;;;5.37;81.16
38716;BME280;24833;49.324;8.694;2024-03-08T09:22:24;99388.03;;;5.37;81.10
38716;BME280;24833;49.324;8.694;2024-03-08T09:24:52;99379.28;;;5.36;81.06
38716;BME280;24833;49.324;8.694;2024-03-08T09:27:19;99381.75;;;5.38;81.15
38716;BME280;24833;49.324;8.694;2024-03-08T09:29:46;99385.38;;;5.37;81.11
38716;BME280;24833;49.324;8.694;2024-03-08T09:32:13;99382.91;;;5.35;80.82
38716;BME280;24833;49.324;8.694;2024-03-08T09:34:40;99369.84;;;5.34;80.64
38716;BME280;24833;49.324;8.694;2024-03-08T09:37:07;99377.78;;;5.34;80.38
38716;BME280;24833;49.324;8.694;2024-03-08T09:39:36;99371.84;;;5.32;80.54
38716;BME280;24833;49.324;8.694;2024-03-08T09:42:03;99379.97;;;5.30;80.09
38716;BME280;24833;49.324;8.694;2024-03-08T09:44:30;99368.88;;;5.27;80.22
38716;BME280;24833;49.324;8.694;2024-03-08T09:47:00;99383.09;;;5.26;80.05
38716;BME280;24833;49.324;8.694;2024-03-08T09:49:32;99377.00;;;5.25;79.84
38716;BME280;24833;49.324;8.694;2024-03-08T09:51:59;99370.69;;;5.26;79.84
38716;BME280;24833;49.324;8.694;2024-03-08T09:54:26;99366.22;;;5.27;80.01
38716;BME280;24833;49.324;8.694;2024-03-08T09:56:54;99363.25;;;5.30;80.16
38716;BME280;24833;49.324;8.694;2024-03-08T09:59:21;99354.78;;;5.34;80.23
38716;BME280;24833;49.324;8.694;2024-03-08T10:01:54;99353.63;;;5.37;80.23
38716;BME280;24833;49.324;8.694;2024-03-08T10:04:25;99353.25;;;5.40;80.05
38716;BME280;24833;49.324;8.694;2024-03-08T10:06:55;99356.41;;;5.43;79.91
38716;BME280;24833;49.324;8.694;2024-03-08T10:09:23;99355.03;;;5.47;79.73
38716;BME280;24833;49.324;8.694;2024-03-08T10:11:59;99356.34;;;5.52;79.75
38716;BME280;24833;49.324;8.694;2024-03-08T10:14:26;99356.19;;;5.53;79.69
38716;BME280;24833;49.324;8.694;2024-03-08T10:16:54;99347.91;;;5.56;79.65
38716;BME280;24833;49.324;8.694;2024-03-08T10:19:21;99347.53;;;5.59;79.41
38716;BME280;24833;49.324;8.694;2024-03-08T10:21:52;99351.31;;;5.65;79.75
38716;BME280;24833;49.324;8.694;2024-03-08T10:24:24;99345.66;;;5.68;79.40
38716;BME280;24833;49.324;8.694;2024-03-08T10:27:02;99347.78;;;5.72;79.47
38716;BME280;24833;49.324;8.694;2024-03-08T10:29:32;99347.47;;;5.76;79.18
38716;BME280;24833;49.324;8.694;2024-03-08T10:31:59;99347.91;;;5.79;79.16
38716;BME280;24833;49.324;8.694;2024-03-08T10:34:27;99349.22;;;5.83;79.37
38716;BME280;24833;49.324;8.694;2024-03-08T10:37:03;99346.03;;;5.88;79.15
38716;BME280;24833;49.324;8.694;2024-03-08T10:39:37;99343.72;;;5.93;78.97
38716;BME280;24833;49.324;8.694;2024-03-08T10:42:12;99332.41;;;5.99;78.67
38716;BME280;24833;49.324;8.694;2024-03-08T10:45:07;99324.78;;;6.04;78.82
38716;BME280;24833;49.324;8.694;2024-03-08T10:47:41;99324.41;;;6.07;78.33
38716;BME280;24833;49.324;8.694;2024-03-08T10:50:18;99327.34;;;6.12;78.27
38716;BME280;24833;49.324;8.694;2024-03-08T10:52:50;99314.03;;;6.20;78.25
38716;BME280;24833;49.324;8.694;2024-03-08T10:55:19;99318.59;;;6.26;78.10
38716;BME280;24833;49.324;8.694;2024-03-08T10:57:47;99314.25;;;6.34;78.33
38716;BME280;24833;49.324;8.694;2024-03-08T11:00:15;99320.03;;;6.37;78.08
38716;BME280;24833;49.324;8.694;2024-03-08T11:02:46;99311.16;;;6.45;77.87
38716;BME280;24833;49.324;8.694;2024-03-08T11:05:40;99306.78;;;6.52;77.77
38716;BME280;24833;49.324;8.694;2024-03-08T11:08:18;99311.34;;;6.58;77.16
38716;BME280;24833;49.324;8.694;2024-03-08T11:10:53;99308.19;;;6.63;77.04
38716;BME280;24833;49.324;8.694;2024-03-08T11:13:42;99315.22;;;6.70;76.58
38716;BME280;24833;49.324;8.694;2024-03-08T11:19:22;99291.03;;;6.95;77.00
38716;BME280;24833;49.324;8.694;2024-03-08T11:22:13;99303.50;;;7.09;77.25
38716;BME280;24833;49.324;8.694;2024-03-08T11:24:47;99286.47;;;7.18;76.62
38716;BME280;24833;49.324;8.694;2024-03-08T11:27:15;99292.28;;;7.28;76.12
38716;BME280;24833;49.324;8.694;2024-03-08T11:29:42;99290.38;;;7.37;75.96
38716;BME280;24833;49.324;8.694;2024-03-08T11:32:15;99288.88;;;7.49;75.80
38716;BME280;24833;49.324;8.694;2024-03-08T11:34:49;99281.66;;;7.64;76.46
38716;BME280;24833;49.324;8.694;2024-03-08T11:37:20;99267.94;;;7.82;76.32
38716;BME280;24833;49.324;8.694;2024-03-08T11:39:55;99269.56;;;8.05;76.74
38716;BME280;24833;49.324;8.694;2024-03-08T11:42:26;99259.50;;;8.28;76.87
38716;BME280;24833;49.324;8.694;2024-03-08T11:44:53;99267.72;;;8.55;77.54
38716;BME280;24833;49.324;8.694;2024-03-08T11:47:21;99274.00;;;8.82;78.24
38716;BME280;24833;49.324;8.694;2024-03-08T11:49:48;99262.25;;;9.04;78.75
38716;BME280;24833;49.324;8.694;2024-03-08T11:52:17;99268.91;;;9.28;78.96
38716;BME280;24833;49.324;8.694;2024-03-08T11:54:53;99254.00;;;9.53;79.88
38716;BME280;24833;49.324;8.694;2024-03-08T11:57:25;99252.41;;;9.79;80.34
38716;BME280;24833;49.324;8.694;2024-03-08T11:59:53;99251.19;;;10.01;80.50
38716;BME280;24833;49.324;8.694;2024-03-08T12:02:24;99244.00;;;10.22;80.10
38716;BME280;24833;49.324;8.694;2024-03-08T12:04:59;99222.88;;;10.40;80.07
38716;BME280;24833;49.324;8.694;2024-03-08T12:07:27;99245.44;;;10.57;80.38
38716;BME280;24833;49.324;8.694;2024-03-08T12:10:21;99223.41;;;10.75;79.69
38716;BME280;24833;49.324;8.694;2024-03-08T12:12:56;99218.22;;;10.94;79.66
38716;BME280;24833;49.324;8.694;2024-03-08T12:15:28;99221.84;;;11.12;78.74
38716;BME280;24833;49.324;8.694;2024-03-08T12:17:56;99207.38;;;11.27;77.97
38716;BME280;24833;49.324;8.694;2024-03-08T12:20:25;99196.84;;;11.38;77.20
38716;BME280;24833;49.324;8.694;2024-03-08T12:22:54;99193.03;;;11.53;76.78
38716;BME280;24833;49.324;8.694;2024-03-08T12:25:42;99191.91;;;11.67;76.73
38716;BME280;24833;49.324;8.694;2024-03-08T12:28:11;99183.59;;;11.82;76.72
38716;BME280;24833;49.324;8.694;2024-03-08T12:30:51;99183.41;;;12.02;76.23
38716;BME280;24833;49.324;8.694;2024-03-08T12:33:21;99187.59;;;12.16;76.08
38716;BME280;24833;49.324;8.694;2024-03-08T12:35:53;99182.94;;;12.30;75.15
38716;BME280;24833;49.324;8.694;2024-03-08T12:38:22;99172.91;;;12.43;74.88
38716;BME280;24833;49.324;8.694;2024-03-08T12:41:00;99169.88;;;12.58;74.98
38716;BME280;24833;49.324;8.694;2024-03-08T12:43:29;99162.13;;;12.68;74.33
38716;BME280;24833;49.324;8.694;2024-03-08T12:45:58;99167.56;;;12.80;73.79
38716;BME280;24833;49.324;8.694;2024-03-08T12:48:26;99161.22;;;12.93;73.75
38716;BME280;24833;49.324;8.694;2024-03-08T12:50:53;99161.63;;;13.08;74.32
38716;BME280;24833;49.324;8.694;2024-03-08T12:53:22;99135.25;;;13.23;73.90
38716;BME280;24833;49.324;8.694;2024-03-08T12:55:50;99140.09;;;13.45;74.89
38716;BME280;24833;49.324;8.694;2024-03-08T12:58:17;99133.28;;;13.72;75.33
38716;BME280;24833;49.324;8.694;2024-03-08T13:00:47;99127.22;;;14.00;74.76
38716;BME280;24833;49.324;8.694;2024-03-08T13:03:16;99125.44;;;14.29;73.97
38716;BME280;24833;49.324;8.694;2024-03-08T13:05:43;99116.31;;;14.54;73.40
38716;BME280;24833;49.324;8.694;2024-03-08T13:08:11;99114.13;;;14.79;72.15
38716;BME280;24833;49.324;8.694;2024-03-08T13:10:40;99103.28;;;15.03;72.20
38716;BME280;24833;49.324;8.694;2024-03-08T13:13:11;99102.56;;;15.24;71.14
38716;BME280;24833;49.324;8.694;2024-03-08T13:15:42;99090.53;;;15.43;70.83
38716;BME280;24833;49.324;8.694;2024-03-08T13:18:10;99092.41;;;15.60;69.80
38716;BME280;24833;49.324;8.694;2024-03-08T13:20:38;99087.81;;;15.72;68.49
38716;BME280;24833;49.324;8.694;2024-03-08T13:23:13;99092.78;;;15.80;66.84